Leland, IL (60531)

7:16 PM CDT on August 29, 2014 (GMT -0500)
Weather at Chuck and Pats House | Change Station
CLOSE
Current Station
Personal Weather Station
Location: Serena, IL
Elevation: 633 ft
Nearby Weather Stations

Elev 633 ft 41.51 °N, 88.74 °W | Updated 3 seconds ago

Partly Cloudy
Partly Cloudy
78.7 °F
Feels Like 82 °F
N
4.6
Wind Variable Wind from SSE
Gusts 6.9 mph

Today
High -- | Low -- °F
--% Chance of Precip.
Yesterday
High -- | Low -- °F
Precip. -- in
6:18 AM 7:33 PM
Waxing Crescent, 17% visible
Pressure 29.88 in
Visibility 7.0 miles
Clouds Clear
Heat Index 82 °F
Dew Point 75 °F
Humidity 88%
Rainfall 0.00 in
Snow Depth Not available.
UV 0 out of 12
Pollen 4.20 out of 12
Air Quality Not available.
Flu Activity Not available.
SPECI KARR 292342Z 18003KT 7SM CLR 24/19 A2988 RMK AO2 RAB12E23 P0000 T02390189

More Conditions Fewer Conditions

Pressure 29.88 in
Visibility 7.0 miles
Clouds Clear
Heat Index 82 °F
Dew Point 75 °F
Humidity 88%
Rainfall 0.00 in
Snow Depth Not available.
UV 0 out of 12
Pollen 4.20 out of 12
Air Quality Not available.
Flu Activity Not available.
SPECI KARR 292342Z 18003KT 7SM CLR 24/19 A2988 RMK AO2 RAB12E23 P0000 T02390189

More Conditions Fewer Conditions

10-Day Weather Forecast

Almanac

Astronomy

Aug. 29, 2014 Rise Set
Actual Time 6:18 AM CDT 7:33 PM CDT
Civil Twilight 5:49 AM CDT 8:01 PM CDT
Nautical Twilight 5:14 AM CDT 8:36 PM CDT
Astronomical Twilight 4:38 AM CDT 9:12 PM CDT
Moon 10:10 AM CDT (8/29) 9:26 PM CDT (8/29)
Length of Visible Light 14h 12m
Length of Day
13h 15m
Tomorrow will be 2m 40s shorter.
Waxing Crescent, 17% of the Moon is Illuminated
Today
Waxing Crescent
Sep 2
First Quarter
Sep 8
Full
Sep 15
Last Quarter
Sep 24
New

Today's Extremes

State Highs State Lows

Community

WunderPhotos

Upload Photos

1,748,382 photos uploaded!

Nearby

Snow Depth

Station Depth Elevation
No new snow has been reported.

Earthquake Activity

City Distance Mag. Time & Date
No recent earthquake activity has been reported nearby.
Minimum magnitude displayed is 2.5.

Coastal Water Temperatures

Place Temperature
No Stations Reporting

Nearby Weather Stations